sensor_id;sensor_type;location;lat;lon;timestamp;P1;durP1;ratioP1;P2;durP2;ratioP2
68870;SDS011;55906;52.278;6.808;2022-11-02T00:02:17;11.48;;;4.00;;
68870;SDS011;55906;52.278;6.808;2022-11-02T00:04:44;15.35;;;3.70;;
68870;SDS011;55906;52.278;6.808;2022-11-02T00:07:10;11.68;;;3.15;;
68870;SDS011;55906;52.278;6.808;2022-11-02T00:09:37;8.18;;;3.38;;
68870;SDS011;55906;52.278;6.808;2022-11-02T00:12:04;9.60;;;3.73;;
68870;SDS011;55906;52.278;6.808;2022-11-02T00:14:31;16.17;;;4.63;;
68870;SDS011;55906;52.278;6.808;2022-11-02T00:16:59;10.63;;;3.65;;
68870;SDS011;55906;52.278;6.808;2022-11-02T00:19:26;10.15;;;3.30;;
68870;SDS011;55906;52.278;6.808;2022-11-02T00:21:53;8.93;;;3.20;;
68870;SDS011;55906;52.278;6.808;2022-11-02T00:24:22;9.97;;;3.23;;
68870;SDS011;55906;52.278;6.808;2022-11-02T00:26:49;9.75;;;3.30;;
68870;SDS011;55906;52.278;6.808;2022-11-02T00:29:16;13.35;;;3.85;;
68870;SDS011;55906;52.278;6.808;2022-11-02T00:31:42;12.85;;;3.30;;
68870;SDS011;55906;52.278;6.808;2022-11-02T00:34:10;9.35;;;4.05;;
68870;SDS011;55906;52.278;6.808;2022-11-02T00:36:37;10.43;;;3.27;;
68870;SDS011;55906;52.278;6.808;2022-11-02T00:39:04;12.30;;;3.15;;
68870;SDS011;55906;52.278;6.808;2022-11-02T00:41:30;12.27;;;3.58;;
68870;SDS011;55906;52.278;6.808;2022-11-02T00:43:57;10.02;;;3.60;;
68870;SDS011;55906;52.278;6.808;2022-11-02T00:46:24;10.25;;;3.63;;
68870;SDS011;55906;52.278;6.808;2022-11-02T00:48:50;9.33;;;3.10;;
68870;SDS011;55906;52.278;6.808;2022-11-02T00:51:18;8.45;;;3.53;;
68870;SDS011;55906;52.278;6.808;2022-11-02T00:53:45;7.40;;;3.17;;
68870;SDS011;55906;52.278;6.808;2022-11-02T00:56:11;10.95;;;3.45;;
68870;SDS011;55906;52.278;6.808;2022-11-02T00:58:38;14.30;;;3.33;;
68870;SDS011;55906;52.278;6.808;2022-11-02T01:01:05;12.50;;;3.83;;
68870;SDS011;55906;52.278;6.808;2022-11-02T01:03:32;9.35;;;3.05;;
68870;SDS011;55906;52.278;6.808;2022-11-02T01:05:59;10.85;;;3.30;;
68870;SDS011;55906;52.278;6.808;2022-11-02T01:08:34;9.73;;;3.22;;
68870;SDS011;55906;52.278;6.808;2022-11-02T01:11:07;9.10;;;2.80;;
68870;SDS011;55906;52.278;6.808;2022-11-02T01:13:35;10.83;;;4.07;;
68870;SDS011;55906;52.278;6.808;2022-11-02T01:16:02;9.20;;;2.95;;
68870;SDS011;55906;52.278;6.808;2022-11-02T01:18:28;12.00;;;3.80;;
68870;SDS011;55906;52.278;6.808;2022-11-02T01:20:55;13.48;;;3.67;;
68870;SDS011;55906;52.278;6.808;2022-11-02T01:23:22;15.98;;;3.92;;
68870;SDS011;55906;52.278;6.808;2022-11-02T01:25:50;16.27;;;4.10;;
68870;SDS011;55906;52.278;6.808;2022-11-02T01:28:16;14.25;;;3.78;;
68870;SDS011;55906;52.278;6.808;2022-11-02T01:30:45;13.43;;;3.30;;
68870;SDS011;55906;52.278;6.808;2022-11-02T01:33:12;9.30;;;3.30;;
68870;SDS011;55906;52.278;6.808;2022-11-02T01:35:40;11.45;;;3.60;;
68870;SDS011;55906;52.278;6.808;2022-11-02T01:38:06;13.57;;;3.30;;
68870;SDS011;55906;52.278;6.808;2022-11-02T01:40:33;8.18;;;3.00;;
68870;SDS011;55906;52.278;6.808;2022-11-02T01:45:47;8.27;;;3.47;;
68870;SDS011;55906;52.278;6.808;2022-11-02T01:48:15;8.32;;;2.67;;
68870;SDS011;55906;52.278;6.808;2022-11-02T01:50:42;12.33;;;3.30;;
68870;SDS011;55906;52.278;6.808;2022-11-02T01:53:08;9.77;;;3.10;;
68870;SDS011;55906;52.278;6.808;2022-11-02T01:55:35;10.65;;;3.28;;
68870;SDS011;55906;52.278;6.808;2022-11-02T01:58:03;11.85;;;3.20;;
68870;SDS011;55906;52.278;6.808;2022-11-02T02:00:35;11.80;;;3.50;;
68870;SDS011;55906;52.278;6.808;2022-11-02T02:03:04;12.03;;;4.00;;
68870;SDS011;55906;52.278;6.808;2022-11-02T02:05:34;7.35;;;4.05;;
68870;SDS011;55906;52.278;6.808;2022-11-02T02:08:05;18.10;;;4.28;;
68870;SDS011;55906;52.278;6.808;2022-11-02T02:10:33;9.43;;;3.65;;
68870;SDS011;55906;52.278;6.808;2022-11-02T02:13:00;11.30;;;3.55;;
68870;SDS011;55906;52.278;6.808;2022-11-02T02:15:31;8.70;;;3.53;;
68870;SDS011;55906;52.278;6.808;2022-11-02T02:18:07;11.55;;;3.88;;
68870;SDS011;55906;52.278;6.808;2022-11-02T02:20:48;11.93;;;4.05;;
68870;SDS011;55906;52.278;6.808;2022-11-02T02:23:36;10.38;;;3.67;;
68870;SDS011;55906;52.278;6.808;2022-11-02T02:29:26;10.63;;;3.73;;
68870;SDS011;55906;52.278;6.808;2022-11-02T02:32:00;10.50;;;3.42;;
68870;SDS011;55906;52.278;6.808;2022-11-02T02:34:32;12.75;;;3.70;;
68870;SDS011;55906;52.278;6.808;2022-11-02T02:37:03;9.93;;;3.10;;
68870;SDS011;55906;52.278;6.808;2022-11-02T02:39:35;8.88;;;3.78;;
68870;SDS011;55906;52.278;6.808;2022-11-02T02:42:10;9.10;;;3.53;;
68870;SDS011;55906;52.278;6.808;2022-11-02T02:44:44;11.75;;;3.90;;
68870;SDS011;55906;52.278;6.808;2022-11-02T02:47:17;13.18;;;3.85;;
68870;SDS011;55906;52.278;6.808;2022-11-02T02:49:47;10.95;;;3.85;;
68870;SDS011;55906;52.278;6.808;2022-11-02T02:52:16;8.35;;;3.13;;
68870;SDS011;55906;52.278;6.808;2022-11-02T02:54:45;9.90;;;3.20;;
68870;SDS011;55906;52.278;6.808;2022-11-02T02:57:15;7.78;;;2.97;;
68870;SDS011;55906;52.278;6.808;2022-11-02T02:59:45;8.98;;;3.10;;
68870;SDS011;55906;52.278;6.808;2022-11-02T03:02:15;7.75;;;2.33;;
68870;SDS011;55906;52.278;6.808;2022-11-02T03:04:45;10.13;;;2.67;;
68870;SDS011;55906;52.278;6.808;2022-11-02T03:07:13;5.50;;;2.60;;
68870;SDS011;55906;52.278;6.808;2022-11-02T03:09:48;6.57;;;2.85;;
68870;SDS011;55906;52.278;6.808;2022-11-02T03:12:20;7.55;;;2.72;;
68870;SDS011;55906;52.278;6.808;2022-11-02T03:15:06;7.78;;;2.50;;
68870;SDS011;55906;52.278;6.808;2022-11-02T03:17:38;6.80;;;2.78;;
68870;SDS011;55906;52.278;6.808;2022-11-02T03:20:15;3.70;;;2.40;;
68870;SDS011;55906;52.278;6.808;2022-11-02T03:22:47;7.65;;;2.95;;
68870;SDS011;55906;52.278;6.808;2022-11-02T03:25:23;6.07;;;2.85;;
68870;SDS011;55906;52.278;6.808;2022-11-02T03:27:55;6.97;;;2.97;;
68870;SDS011;55906;52.278;6.808;2022-11-02T03:30:27;5.40;;;2.60;;
68870;SDS011;55906;52.278;6.808;2022-11-02T03:33:03;7.60;;;2.83;;
68870;SDS011;55906;52.278;6.808;2022-11-02T03:35:32;5.10;;;2.80;;
68870;SDS011;55906;52.278;6.808;2022-11-02T03:38:06;9.25;;;2.95;;
68870;SDS011;55906;52.278;6.808;2022-11-02T03:40:40;7.40;;;2.95;;
68870;SDS011;55906;52.278;6.808;2022-11-02T03:43:10;7.90;;;3.03;;
68870;SDS011;55906;52.278;6.808;2022-11-02T03:45:41;8.47;;;2.90;;
68870;SDS011;55906;52.278;6.808;2022-11-02T03:48:10;6.43;;;2.72;;
68870;SDS011;55906;52.278;6.808;2022-11-02T03:50:40;7.35;;;2.70;;
68870;SDS011;55906;52.278;6.808;2022-11-02T03:53:15;7.70;;;2.97;;
68870;SDS011;55906;52.278;6.808;2022-11-02T03:55:47;5.43;;;2.70;;
68870;SDS011;55906;52.278;6.808;2022-11-02T03:58:18;5.33;;;2.90;;
68870;SDS011;55906;52.278;6.808;2022-11-02T04:00:47;9.68;;;3.00;;
68870;SDS011;55906;52.278;6.808;2022-11-02T04:03:17;6.38;;;2.63;;
68870;SDS011;55906;52.278;6.808;2022-11-02T04:05:46;6.30;;;2.88;;
68870;SDS011;55906;52.278;6.808;2022-11-02T04:08:13;4.40;;;2.80;;
68870;SDS011;55906;52.278;6.808;2022-11-02T04:10:49;7.67;;;2.83;;
68870;SDS011;55906;52.278;6.808;2022-11-02T04:13:34;6.85;;;2.88;;
68870;SDS011;55906;52.278;6.808;2022-11-02T04:16:20;6.28;;;3.17;;
68870;SDS011;55906;52.278;6.808;2022-11-02T04:18:47;6.60;;;2.90;;
68870;SDS011;55906;52.278;6.808;2022-11-02T04:21:31;5.50;;;2.60;;
68870;SDS011;55906;52.278;6.808;2022-11-02T04:23:57;10.27;;;2.90;;
68870;SDS011;55906;52.278;6.808;2022-11-02T04:26:42;9.45;;;2.90;;
68870;SDS011;55906;52.278;6.808;2022-11-02T04:29:08;8.80;;;3.15;;
68870;SDS011;55906;52.278;6.808;2022-11-02T04:31:36;9.32;;;3.25;;
68870;SDS011;55906;52.278;6.808;2022-11-02T04:34:03;8.60;;;3.00;;
68870;SDS011;55906;52.278;6.808;2022-11-02T04:36:29;7.80;;;3.30;;
68870;SDS011;55906;52.278;6.808;2022-11-02T04:38:56;9.55;;;3.20;;
68870;SDS011;55906;52.278;6.808;2022-11-02T04:41:22;9.65;;;3.80;;
68870;SDS011;55906;52.278;6.808;2022-11-02T04:44:08;13.13;;;3.42;;
68870;SDS011;55906;52.278;6.808;2022-11-02T04:46:37;9.02;;;3.20;;
68870;SDS011;55906;52.278;6.808;2022-11-02T04:49:04;10.73;;;3.35;;
68870;SDS011;55906;52.278;6.808;2022-11-02T04:51:32;9.93;;;3.10;;
68870;SDS011;55906;52.278;6.808;2022-11-02T04:53:59;11.07;;;3.20;;
68870;SDS011;55906;52.278;6.808;2022-11-02T04:56:27;10.07;;;3.10;;
68870;SDS011;55906;52.278;6.808;2022-11-02T04:58:55;9.65;;;3.70;;
68870;SDS011;55906;52.278;6.808;2022-11-02T05:01:23;10.00;;;3.35;;
68870;SDS011;55906;52.278;6.808;2022-11-02T05:03:53;8.07;;;3.38;;
68870;SDS011;55906;52.278;6.808;2022-11-02T05:06:21;11.13;;;3.30;;
68870;SDS011;55906;52.278;6.808;2022-11-02T05:08:48;11.90;;;3.67;;
68870;SDS011;55906;52.278;6.808;2022-11-02T05:11:15;9.23;;;3.30;;
68870;SDS011;55906;52.278;6.808;2022-11-02T05:13:42;10.65;;;3.80;;
68870;SDS011;55906;52.278;6.808;2022-11-02T05:16:10;14.73;;;3.30;;
68870;SDS011;55906;52.278;6.808;2022-11-02T05:18:38;7.93;;;3.13;;
68870;SDS011;55906;52.278;6.808;2022-11-02T05:21:06;12.10;;;3.63;;
68870;SDS011;55906;52.278;6.808;2022-11-02T05:23:35;10.02;;;2.95;;
68870;SDS011;55906;52.278;6.808;2022-11-02T05:26:03;6.88;;;3.25;;
68870;SDS011;55906;52.278;6.808;2022-11-02T05:28:31;10.65;;;3.30;;
68870;SDS011;55906;52.278;6.808;2022-11-02T05:30:58;12.00;;;3.33;;
68870;SDS011;55906;52.278;6.808;2022-11-02T05:33:26;10.32;;;3.30;;
68870;SDS011;55906;52.278;6.808;2022-11-02T05:35:53;12.73;;;3.50;;
68870;SDS011;55906;52.278;6.808;2022-11-02T05:38:21;12.98;;;3.25;;
68870;SDS011;55906;52.278;6.808;2022-11-02T05:40:50;8.73;;;3.17;;
68870;SDS011;55906;52.278;6.808;2022-11-02T05:43:17;11.97;;;3.20;;
68870;SDS011;55906;52.278;6.808;2022-11-02T05:45:44;10.80;;;3.42;;
68870;SDS011;55906;52.278;6.808;2022-11-02T05:48:17;11.43;;;3.70;;
68870;SDS011;55906;52.278;6.808;2022-11-02T05:50:43;10.93;;;3.60;;
68870;SDS011;55906;52.278;6.808;2022-11-02T05:53:10;11.73;;;3.92;;
68870;SDS011;55906;52.278;6.808;2022-11-02T05:55:38;13.30;;;3.27;;
68870;SDS011;55906;52.278;6.808;2022-11-02T05:58:06;11.38;;;3.58;;
68870;SDS011;55906;52.278;6.808;2022-11-02T06:00:32;10.20;;;3.53;;
68870;SDS011;55906;52.278;6.808;2022-11-02T06:02:59;9.48;;;3.22;;
68870;SDS011;55906;52.278;6.808;2022-11-02T06:05:25;10.48;;;3.83;;
68870;SDS011;55906;52.278;6.808;2022-11-02T06:07:53;7.47;;;3.37;;
68870;SDS011;55906;52.278;6.808;2022-11-02T06:10:23;13.93;;;3.22;;
68870;SDS011;55906;52.278;6.808;2022-11-02T06:12:54;10.93;;;3.22;;
68870;SDS011;55906;52.278;6.808;2022-11-02T06:15:21;10.15;;;3.53;;
68870;SDS011;55906;52.278;6.808;2022-11-02T06:17:48;8.40;;;2.85;;
68870;SDS011;55906;52.278;6.808;2022-11-02T06:20:15;9.57;;;3.47;;
68870;SDS011;55906;52.278;6.808;2022-11-02T06:22:42;13.60;;;3.58;;
68870;SDS011;55906;52.278;6.808;2022-11-02T06:25:09;10.98;;;3.22;;
68870;SDS011;55906;52.278;6.808;2022-11-02T06:27:37;7.97;;;3.08;;
68870;SDS011;55906;52.278;6.808;2022-11-02T06:30:05;11.40;;;3.33;;
68870;SDS011;55906;52.278;6.808;2022-11-02T06:32:33;10.30;;;3.40;;
68870;SDS011;55906;52.278;6.808;2022-11-02T06:35:00;12.23;;;3.53;;
68870;SDS011;55906;52.278;6.808;2022-11-02T06:37:27;11.00;;;3.47;;
68870;SDS011;55906;52.278;6.808;2022-11-02T06:39:53;12.57;;;3.97;;
68870;SDS011;55906;52.278;6.808;2022-11-02T06:42:20;10.40;;;3.70;;
68870;SDS011;55906;52.278;6.808;2022-11-02T06:44:46;8.00;;;3.13;;
68870;SDS011;55906;52.278;6.808;2022-11-02T06:47:14;12.88;;;3.40;;
68870;SDS011;55906;52.278;6.808;2022-11-02T06:49:41;10.13;;;3.45;;
68870;SDS011;55906;52.278;6.808;2022-11-02T06:52:07;9.57;;;3.42;;
68870;SDS011;55906;52.278;6.808;2022-11-02T06:54:34;13.15;;;3.83;;
68870;SDS011;55906;52.278;6.808;2022-11-02T06:57:01;13.17;;;4.33;;
68870;SDS011;55906;52.278;6.808;2022-11-02T06:59:27;10.02;;;3.33;;
68870;SDS011;55906;52.278;6.808;2022-11-02T07:01:54;12.05;;;3.65;;
68870;SDS011;55906;52.278;6.808;2022-11-02T07:04:22;11.35;;;3.78;;
68870;SDS011;55906;52.278;6.808;2022-11-02T07:06:49;10.43;;;3.58;;
68870;SDS011;55906;52.278;6.808;2022-11-02T07:09:15;12.03;;;4.07;;
68870;SDS011;55906;52.278;6.808;2022-11-02T07:11:42;11.73;;;3.92;;
68870;SDS011;55906;52.278;6.808;2022-11-02T07:14:08;11.45;;;4.00;;
68870;SDS011;55906;52.278;6.808;2022-11-02T07:16:35;13.57;;;3.75;;
68870;SDS011;55906;52.278;6.808;2022-11-02T07:19:02;13.60;;;4.75;;
68870;SDS011;55906;52.278;6.808;2022-11-02T07:21:30;13.10;;;4.13;;
68870;SDS011;55906;52.278;6.808;2022-11-02T07:23:56;13.65;;;3.75;;
68870;SDS011;55906;52.278;6.808;2022-11-02T07:26:23;11.35;;;3.72;;
68870;SDS011;55906;52.278;6.808;2022-11-02T07:28:50;8.90;;;3.40;;
68870;SDS011;55906;52.278;6.808;2022-11-02T07:31:17;10.77;;;3.53;;
68870;SDS011;55906;52.278;6.808;2022-11-02T07:33:44;12.03;;;3.53;;
68870;SDS011;55906;52.278;6.808;2022-11-02T07:36:10;10.75;;;3.85;;
68870;SDS011;55906;52.278;6.808;2022-11-02T07:38:38;11.90;;;3.67;;
68870;SDS011;55906;52.278;6.808;2022-11-02T07:41:05;12.13;;;4.18;;
68870;SDS011;55906;52.278;6.808;2022-11-02T07:43:31;13.18;;;4.00;;
68870;SDS011;55906;52.278;6.808;2022-11-02T07:46:00;11.40;;;3.47;;
68870;SDS011;55906;52.278;6.808;2022-11-02T07:48:27;9.68;;;3.35;;
68870;SDS011;55906;52.278;6.808;2022-11-02T07:50:55;10.98;;;3.33;;
68870;SDS011;55906;52.278;6.808;2022-11-02T07:53:23;13.15;;;3.53;;
68870;SDS011;55906;52.278;6.808;2022-11-02T07:55:51;8.85;;;3.40;;
68870;SDS011;55906;52.278;6.808;2022-11-02T07:58:18;10.93;;;2.90;;
68870;SDS011;55906;52.278;6.808;2022-11-02T08:00:44;15.27;;;3.72;;
68870;SDS011;55906;52.278;6.808;2022-11-02T08:03:11;12.73;;;3.53;;
68870;SDS011;55906;52.278;6.808;2022-11-02T08:05:39;9.77;;;3.00;;
68870;SDS011;55906;52.278;6.808;2022-11-02T08:08:08;11.05;;;3.10;;
68870;SDS011;55906;52.278;6.808;2022-11-02T08:10:39;9.70;;;2.83;;
68870;SDS011;55906;52.278;6.808;2022-11-02T08:13:08;7.25;;;3.20;;
68870;SDS011;55906;52.278;6.808;2022-11-02T08:15:38;9.27;;;3.47;;
68870;SDS011;55906;52.278;6.808;2022-11-02T08:18:06;10.68;;;3.45;;
68870;SDS011;55906;52.278;6.808;2022-11-02T08:20:34;13.48;;;3.97;;
68870;SDS011;55906;52.278;6.808;2022-11-02T08:23:02;10.00;;;2.90;;
68870;SDS011;55906;52.278;6.808;2022-11-02T08:25:29;12.18;;;3.88;;
68870;SDS011;55906;52.278;6.808;2022-11-02T08:27:56;10.73;;;3.40;;
68870;SDS011;55906;52.278;6.808;2022-11-02T08:30:25;9.02;;;2.90;;
68870;SDS011;55906;52.278;6.808;2022-11-02T08:32:52;10.73;;;2.65;;
68870;SDS011;55906;52.278;6.808;2022-11-02T08:35:19;5.87;;;3.03;;
68870;SDS011;55906;52.278;6.808;2022-11-02T08:37:51;8.07;;;2.67;;
68870;SDS011;55906;52.278;6.808;2022-11-02T08:40:18;11.32;;;2.70;;
68870;SDS011;55906;52.278;6.808;2022-11-02T08:42:45;8.88;;;3.17;;
68870;SDS011;55906;52.278;6.808;2022-11-02T08:45:12;12.40;;;3.75;;
68870;SDS011;55906;52.278;6.808;2022-11-02T08:47:40;10.43;;;2.70;;
68870;SDS011;55906;52.278;6.808;2022-11-02T08:50:08;8.98;;;3.05;;
68870;SDS011;55906;52.278;6.808;2022-11-02T08:52:35;10.43;;;2.90;;
68870;SDS011;55906;52.278;6.808;2022-11-02T08:55:02;10.95;;;2.70;;
68870;SDS011;55906;52.278;6.808;2022-11-02T08:57:29;11.10;;;2.95;;
68870;SDS011;55906;52.278;6.808;2022-11-02T08:59:56;8.43;;;2.53;;
68870;SDS011;55906;52.278;6.808;2022-11-02T09:02:22;11.80;;;3.40;;
68870;SDS011;55906;52.278;6.808;2022-11-02T09:04:50;12.63;;;3.13;;
68870;SDS011;55906;52.278;6.808;2022-11-02T09:07:17;11.55;;;2.90;;
68870;SDS011;55906;52.278;6.808;2022-11-02T09:09:44;13.07;;;3.13;;
68870;SDS011;55906;52.278;6.808;2022-11-02T09:12:10;10.77;;;2.80;;
68870;SDS011;55906;52.278;6.808;2022-11-02T09:14:37;9.95;;;2.92;;
68870;SDS011;55906;52.278;6.808;2022-11-02T09:17:03;8.73;;;2.90;;
68870;SDS011;55906;52.278;6.808;2022-11-02T09:19:30;9.57;;;2.60;;
68870;SDS011;55906;52.278;6.808;2022-11-02T09:21:58;7.50;;;2.55;;
68870;SDS011;55906;52.278;6.808;2022-11-02T09:24:25;8.10;;;2.67;;
68870;SDS011;55906;52.278;6.808;2022-11-02T09:26:51;13.75;;;2.53;;
68870;SDS011;55906;52.278;6.808;2022-11-02T09:29:18;9.93;;;3.10;;
68870;SDS011;55906;52.278;6.808;2022-11-02T09:31:45;9.63;;;2.80;;
68870;SDS011;55906;52.278;6.808;2022-11-02T09:34:14;11.35;;;2.58;;
68870;SDS011;55906;52.278;6.808;2022-11-02T09:36:41;10.07;;;3.20;;
68870;SDS011;55906;52.278;6.808;2022-11-02T09:39:09;7.93;;;2.33;;
68870;SDS011;55906;52.278;6.808;2022-11-02T09:41:38;11.52;;;3.20;;
68870;SDS011;55906;52.278;6.808;2022-11-02T09:44:10;10.65;;;2.90;;
68870;SDS011;55906;52.278;6.808;2022-11-02T09:46:44;8.55;;;2.47;;
68870;SDS011;55906;52.278;6.808;2022-11-02T09:49:13;9.03;;;2.30;;
68870;SDS011;55906;52.278;6.808;2022-11-02T09:51:42;9.15;;;2.72;;
68870;SDS011;55906;52.278;6.808;2022-11-02T09:54:14;8.70;;;2.50;;
68870;SDS011;55906;52.278;6.808;2022-11-02T09:56:45;10.40;;;2.72;;
68870;SDS011;55906;52.278;6.808;2022-11-02T09:59:13;8.90;;;2.60;;
68870;SDS011;55906;52.278;6.808;2022-11-02T10:01:45;9.80;;;2.67;;
68870;SDS011;55906;52.278;6.808;2022-11-02T10:07:32;12.52;;;2.70;;
68870;SDS011;55906;52.278;6.808;2022-11-02T10:10:11;11.65;;;3.20;;
68870;SDS011;55906;52.278;6.808;2022-11-02T10:12:45;8.25;;;2.47;;
68870;SDS011;55906;52.278;6.808;2022-11-02T10:15:34;10.00;;;2.70;;
68870;SDS011;55906;52.278;6.808;2022-11-02T10:18:03;11.57;;;2.88;;
68870;SDS011;55906;52.278;6.808;2022-11-02T10:20:35;7.05;;;2.20;;
68870;SDS011;55906;52.278;6.808;2022-11-02T10:23:11;13.07;;;3.00;;
68870;SDS011;55906;52.278;6.808;2022-11-02T10:25:46;12.40;;;2.67;;
68870;SDS011;55906;52.278;6.808;2022-11-02T10:28:14;9.37;;;2.73;;
68870;SDS011;55906;52.278;6.808;2022-11-02T10:30:43;11.95;;;2.65;;
68870;SDS011;55906;52.278;6.808;2022-11-02T10:33:11;10.00;;;2.67;;
68870;SDS011;55906;52.278;6.808;2022-11-02T10:35:42;9.05;;;2.92;;
68870;SDS011;55906;52.278;6.808;2022-11-02T10:38:17;9.10;;;2.65;;
68870;SDS011;55906;52.278;6.808;2022-11-02T10:41:02;11.13;;;2.73;;
68870;SDS011;55906;52.278;6.808;2022-11-02T10:43:43;8.13;;;2.60;;
68870;SDS011;55906;52.278;6.808;2022-11-02T10:46:24;12.10;;;2.67;;
68870;SDS011;55906;52.278;6.808;2022-11-02T10:49:01;9.52;;;2.70;;
68870;SDS011;55906;52.278;6.808;2022-11-02T10:51:37;8.05;;;2.70;;
68870;SDS011;55906;52.278;6.808;2022-11-02T10:54:06;16.30;;;3.20;;
68870;SDS011;55906;52.278;6.808;2022-11-02T10:56:40;10.88;;;2.63;;
68870;SDS011;55906;52.278;6.808;2022-11-02T10:59:11;11.27;;;2.47;;
68870;SDS011;55906;52.278;6.808;2022-11-02T11:01:43;10.55;;;2.90;;
68870;SDS011;55906;52.278;6.808;2022-11-02T11:04:18;9.45;;;2.60;;
68870;SDS011;55906;52.278;6.808;2022-11-02T11:06:46;9.87;;;3.07;;
68870;SDS011;55906;52.278;6.808;2022-11-02T11:09:14;9.57;;;3.17;;
68870;SDS011;55906;52.278;6.808;2022-11-02T11:11:52;9.00;;;2.70;;
68870;SDS011;55906;52.278;6.808;2022-11-02T11:14:21;7.90;;;2.10;;
68870;SDS011;55906;52.278;6.808;2022-11-02T11:16:50;9.35;;;2.50;;
68870;SDS011;55906;52.278;6.808;2022-11-02T11:19:27;9.37;;;2.60;;
68870;SDS011;55906;52.278;6.808;2022-11-02T11:22:01;10.80;;;2.67;;
68870;SDS011;55906;52.278;6.808;2022-11-02T11:24:28;7.82;;;2.47;;
68870;SDS011;55906;52.278;6.808;2022-11-02T11:29:47;7.55;;;2.60;;
68870;SDS011;55906;52.278;6.808;2022-11-02T11:32:16;10.73;;;3.13;;
68870;SDS011;55906;52.278;6.808;2022-11-02T11:34:49;9.27;;;2.45;;
68870;SDS011;55906;52.278;6.808;2022-11-02T11:37:21;7.45;;;2.50;;
68870;SDS011;55906;52.278;6.808;2022-11-02T11:39:50;9.73;;;3.17;;
68870;SDS011;55906;52.278;6.808;2022-11-02T11:42:21;7.57;;;2.22;;
68870;SDS011;55906;52.278;6.808;2022-11-02T11:44:54;7.47;;;2.23;;
68870;SDS011;55906;52.278;6.808;2022-11-02T11:47:27;7.93;;;2.50;;
68870;SDS011;55906;52.278;6.808;2022-11-02T11:49:56;7.97;;;2.75;;
68870;SDS011;55906;52.278;6.808;2022-11-02T11:52:28;9.48;;;2.40;;
68870;SDS011;55906;52.278;6.808;2022-11-02T11:54:57;6.53;;;2.72;;
68870;SDS011;55906;52.278;6.808;2022-11-02T11:57:27;8.87;;;2.80;;
68870;SDS011;55906;52.278;6.808;2022-11-02T11:59:56;7.35;;;2.70;;
68870;SDS011;55906;52.278;6.808;2022-11-02T12:02:26;8.85;;;2.80;;
68870;SDS011;55906;52.278;6.808;2022-11-02T12:04:58;8.57;;;2.35;;
68870;SDS011;55906;52.278;6.808;2022-11-02T12:07:33;11.13;;;2.42;;
68870;SDS011;55906;52.278;6.808;2022-11-02T12:10:26;10.03;;;2.57;;
68870;SDS011;55906;52.278;6.808;2022-11-02T12:13:07;6.13;;;2.20;;
68870;SDS011;55906;52.278;6.808;2022-11-02T12:15:48;8.88;;;2.60;;
68870;SDS011;55906;52.278;6.808;2022-11-02T12:18:35;8.15;;;2.40;;
68870;SDS011;55906;52.278;6.808;2022-11-02T12:21:15;7.28;;;2.30;;
68870;SDS011;55906;52.278;6.808;2022-11-02T12:23:58;8.37;;;2.40;;
68870;SDS011;55906;52.278;6.808;2022-11-02T12:26:46;8.90;;;2.50;;
68870;SDS011;55906;52.278;6.808;2022-11-02T12:29:28;9.60;;;2.30;;
68870;SDS011;55906;52.278;6.808;2022-11-02T12:32:07;7.07;;;2.33;;
68870;SDS011;55906;52.278;6.808;2022-11-02T12:34:48;9.98;;;2.63;;
68870;SDS011;55906;52.278;6.808;2022-11-02T12:37:28;7.03;;;2.47;;
68870;SDS011;55906;52.278;6.808;2022-11-02T12:40:09;13.13;;;3.20;;
68870;SDS011;55906;52.278;6.808;2022-11-02T12:42:48;8.10;;;2.50;;
68870;SDS011;55906;52.278;6.808;2022-11-02T12:45:38;7.70;;;2.90;;
68870;SDS011;55906;52.278;6.808;2022-11-02T12:48:13;8.70;;;2.60;;
68870;SDS011;55906;52.278;6.808;2022-11-02T12:50:50;9.87;;;2.90;;
68870;SDS011;55906;52.278;6.808;2022-11-02T12:56:15;8.48;;;2.88;;
68870;SDS011;55906;52.278;6.808;2022-11-02T12:58:46;9.30;;;2.90;;
68870;SDS011;55906;52.278;6.808;2022-11-02T13:01:17;8.27;;;2.20;;
68870;SDS011;55906;52.278;6.808;2022-11-02T13:03:52;9.10;;;2.50;;
68870;SDS011;55906;52.278;6.808;2022-11-02T13:06:25;10.35;;;2.88;;
68870;SDS011;55906;52.278;6.808;2022-11-02T13:08:57;9.52;;;2.83;;
68870;SDS011;55906;52.278;6.808;2022-11-02T13:11:29;8.02;;;2.88;;
68870;SDS011;55906;52.278;6.808;2022-11-02T13:13:59;8.73;;;2.88;;
68870;SDS011;55906;52.278;6.808;2022-11-02T13:16:34;8.63;;;2.50;;
68870;SDS011;55906;52.278;6.808;2022-11-02T13:19:06;6.90;;;2.22;;
68870;SDS011;55906;52.278;6.808;2022-11-02T13:21:42;9.75;;;2.40;;
68870;SDS011;55906;52.278;6.808;2022-11-02T13:24:12;9.32;;;2.90;;
68870;SDS011;55906;52.278;6.808;2022-11-02T13:26:43;10.02;;;2.83;;
68870;SDS011;55906;52.278;6.808;2022-11-02T13:29:14;8.30;;;2.53;;
68870;SDS011;55906;52.278;6.808;2022-11-02T13:31:46;8.40;;;2.75;;
68870;SDS011;55906;52.278;6.808;2022-11-02T13:34:19;9.52;;;2.58;;
68870;SDS011;55906;52.278;6.808;2022-11-02T13:36:54;8.10;;;2.22;;
68870;SDS011;55906;52.278;6.808;2022-11-02T13:39:21;6.15;;;2.28;;
68870;SDS011;55906;52.278;6.808;2022-11-02T13:42:00;7.07;;;2.47;;
68870;SDS011;55906;52.278;6.808;2022-11-02T13:45:02;6.88;;;2.20;;
68870;SDS011;55906;52.278;6.808;2022-11-02T13:48:03;10.07;;;2.70;;
68870;SDS011;55906;52.278;6.808;2022-11-02T13:50:41;7.63;;;2.53;;
68870;SDS011;55906;52.278;6.808;2022-11-02T13:53:13;16.13;;;5.68;;
68870;SDS011;55906;52.278;6.808;2022-11-02T13:55:45;17.43;;;5.13;;
68870;SDS011;55906;52.278;6.808;2022-11-02T13:58:19;9.95;;;2.95;;
68870;SDS011;55906;52.278;6.808;2022-11-02T14:00:49;11.40;;;2.78;;
68870;SDS011;55906;52.278;6.808;2022-11-02T14:03:20;9.38;;;2.35;;
68870;SDS011;55906;52.278;6.808;2022-11-02T14:05:52;10.05;;;2.55;;
68870;SDS011;55906;52.278;6.808;2022-11-02T14:08:24;8.03;;;2.40;;
68870;SDS011;55906;52.278;6.808;2022-11-02T14:11:00;11.25;;;2.50;;
68870;SDS011;55906;52.278;6.808;2022-11-02T14:16:41;7.70;;;2.47;;
68870;SDS011;55906;52.278;6.808;2022-11-02T14:19:21;9.27;;;2.78;;
68870;SDS011;55906;52.278;6.808;2022-11-02T14:24:53;8.60;;;2.60;;
68870;SDS011;55906;52.278;6.808;2022-11-02T14:27:35;8.75;;;2.50;;
68870;SDS011;55906;52.278;6.808;2022-11-02T14:30:01;7.93;;;2.55;;
68870;SDS011;55906;52.278;6.808;2022-11-02T14:32:35;7.03;;;2.63;;
68870;SDS011;55906;52.278;6.808;2022-11-02T14:38:25;6.20;;;2.60;;
68870;SDS011;55906;52.278;6.808;2022-11-02T14:41:13;8.52;;;2.55;;
68870;SDS011;55906;52.278;6.808;2022-11-02T14:43:56;8.48;;;2.80;;
68870;SDS011;55906;52.278;6.808;2022-11-02T14:46:34;8.52;;;2.70;;
68870;SDS011;55906;52.278;6.808;2022-11-02T14:49:16;8.27;;;2.57;;
68870;SDS011;55906;52.278;6.808;2022-11-02T14:51:54;9.85;;;2.53;;
68870;SDS011;55906;52.278;6.808;2022-11-02T14:54:24;7.78;;;2.50;;
68870;SDS011;55906;52.278;6.808;2022-11-02T14:56:53;9.00;;;2.83;;
68870;SDS011;55906;52.278;6.808;2022-11-02T14:59:24;9.02;;;2.92;;
68870;SDS011;55906;52.278;6.808;2022-11-02T15:01:55;10.30;;;2.80;;
68870;SDS011;55906;52.278;6.808;2022-11-02T15:04:24;9.82;;;2.85;;
68870;SDS011;55906;52.278;6.808;2022-11-02T15:06:53;9.95;;;2.60;;
68870;SDS011;55906;52.278;6.808;2022-11-02T15:12:21;8.40;;;2.70;;
68870;SDS011;55906;52.278;6.808;2022-11-02T15:14:54;10.83;;;2.97;;
68870;SDS011;55906;52.278;6.808;2022-11-02T15:20:24;8.32;;;3.35;;
68870;SDS011;55906;52.278;6.808;2022-11-02T15:22:55;7.85;;;2.75;;
68870;SDS011;55906;52.278;6.808;2022-11-02T15:25:27;8.75;;;2.90;;
68870;SDS011;55906;52.278;6.808;2022-11-02T15:28:02;11.47;;;2.90;;
68870;SDS011;55906;52.278;6.808;2022-11-02T15:30:31;10.80;;;3.30;;
68870;SDS011;55906;52.278;6.808;2022-11-02T15:32:58;9.60;;;2.97;;